createdAt,value
2023-02-22T00:01:08.426Z,100014.59
2023-02-22T00:03:39.173Z,100010.34
2023-02-22T00:06:07.850Z,100013.50
2023-02-22T00:08:36.609Z,100007.78
2023-02-22T00:11:08.899Z,100012.59
2023-02-22T00:13:37.266Z,100008.88
2023-02-22T00:16:07.748Z,100003.25
2023-02-22T00:18:37.933Z,100004.47
2023-02-22T00:21:10.721Z,100000.03
2023-02-22T00:23:41.162Z,99994.25
2023-02-22T00:26:17.665Z,99995.22
2023-02-22T00:28:58.534Z,100000.81
2023-02-22T00:31:27.185Z,100003.50
2023-02-22T00:33:59.229Z,99999.97
2023-02-22T00:36:27.905Z,100003.91
2023-02-22T00:38:56.956Z,99997.88
2023-02-22T00:41:25.093Z,99994.88
2023-02-22T00:43:53.708Z,99989.09
2023-02-22T00:46:23.803Z,99989.78
2023-02-22T00:48:55.254Z,99985.53
2023-02-22T00:51:30.028Z,99992.38
2023-02-22T00:53:58.786Z,99985.81
2023-02-22T00:56:26.869Z,99983.09
2023-02-22T00:58:54.916Z,99983.91
2023-02-22T01:01:25.192Z,99982.44
2023-02-22T01:03:53.714Z,99977.09
2023-02-22T01:06:22.947Z,99966.22
2023-02-22T01:08:53.973Z,99969.00
2023-02-22T01:11:24.801Z,99966.06
2023-02-22T01:13:54.193Z,99956.72
2023-02-22T01:16:23.297Z,99965.72
2023-02-22T01:18:51.294Z,99966.19
2023-02-22T01:21:20.133Z,99959.84
2023-02-22T01:23:48.447Z,99957.06
2023-02-22T01:26:18.131Z,99951.25
2023-02-22T01:28:48.477Z,99955.25
2023-02-22T01:31:17.106Z,99951.84
2023-02-22T01:33:47.280Z,99951.00
2023-02-22T01:36:15.582Z,99947.09
2023-02-22T01:38:45.263Z,99947.94
2023-02-22T01:41:18.807Z,99939.34
2023-02-22T01:43:47.156Z,99933.66
2023-02-22T01:46:22.251Z,99938.78
2023-02-22T01:48:52.434Z,99934.63
2023-02-22T01:51:23.012Z,99934.63
2023-02-22T01:53:53.337Z,99927.56
2023-02-22T01:56:25.150Z,99932.03
2023-02-22T01:58:57.080Z,99919.69
2023-02-22T02:01:26.049Z,99921.25
2023-02-22T02:03:58.347Z,99921.91
2023-02-22T02:06:27.641Z,99917.06
2023-02-22T02:08:59.971Z,99910.47
2023-02-22T02:11:30.189Z,99912.84
2023-02-22T02:14:01.260Z,99909.28
2023-02-22T02:16:37.089Z,99911.53
2023-02-22T02:19:05.548Z,99918.53
2023-02-22T02:21:52.080Z,99915.00
2023-02-22T02:24:34.996Z,99908.88
2023-02-22T02:27:11.499Z,99901.63
2023-02-22T02:29:54.274Z,99906.63
2023-02-22T02:32:43.133Z,99907.22
2023-02-22T02:35:16.060Z,99907.84
2023-02-22T02:37:49.198Z,99909.13
2023-02-22T02:40:22.053Z,99897.75
2023-02-22T02:42:56.150Z,99896.34
2023-02-22T02:45:27.151Z,99901.31
2023-02-22T02:47:58.894Z,99898.09
2023-02-22T02:50:30.960Z,99893.97
2023-02-22T02:53:02.738Z,99896.38
2023-02-22T02:55:31.936Z,99891.63
2023-02-22T02:58:01.541Z,99895.50
2023-02-22T03:00:32.584Z,99892.00
2023-02-22T03:03:07.748Z,99879.00
2023-02-22T03:05:53.640Z,99881.31
2023-02-22T03:08:31.025Z,99879.06
2023-02-22T03:11:05.259Z,99877.44
2023-02-22T03:13:37.967Z,99871.59
2023-02-22T03:16:13.627Z,99877.53
2023-02-22T03:18:46.164Z,99861.44
2023-02-22T03:21:22.252Z,99855.38
2023-02-22T03:23:54.566Z,99850.28
2023-02-22T03:26:27.294Z,99848.59
2023-02-22T03:28:58.685Z,99839.53
2023-02-22T03:31:32.664Z,99845.53
2023-02-22T03:34:04.183Z,99848.09
2023-02-22T03:36:39.192Z,99850.97
2023-02-22T03:39:08.864Z,99850.09
2023-02-22T03:41:39.914Z,99853.72
2023-02-22T03:44:09.854Z,99861.38
2023-02-22T03:46:39.618Z,99853.56
2023-02-22T03:49:11.533Z,99857.59
2023-02-22T03:51:42.642Z,99854.75
2023-02-22T03:54:16.532Z,99863.28
2023-02-22T03:56:50.973Z,99856.25
2023-02-22T03:59:26.181Z,99862.28
2023-02-22T04:01:55.673Z,99856.53
2023-02-22T04:04:24.982Z,99860.53
2023-02-22T04:06:54.909Z,99858.50
2023-02-22T04:09:23.130Z,99862.50
2023-02-22T04:11:51.110Z,99861.91
2023-02-22T04:18:00.211Z,99852.16
2023-02-22T04:20:31.299Z,99847.53
2023-02-22T04:23:05.580Z,99854.22
2023-02-22T04:25:33.480Z,99853.44
2023-02-22T04:28:14.629Z,99849.16
2023-02-22T04:30:51.752Z,99852.84
2023-02-22T04:33:22.241Z,99845.59
2023-02-22T04:35:51.734Z,99852.50
2023-02-22T04:38:21.423Z,99855.31
2023-02-22T04:40:51.553Z,99846.91
2023-02-22T04:43:23.369Z,99858.06
2023-02-22T04:45:54.109Z,99858.69
2023-02-22T04:48:22.095Z,99857.75
2023-02-22T04:50:51.306Z,99855.13
2023-02-22T04:53:21.579Z,99849.66
2023-02-22T04:55:49.758Z,99846.31
2023-02-22T04:58:18.585Z,99839.88
2023-02-22T05:00:47.053Z,99839.13
2023-02-22T05:03:19.247Z,99843.88
2023-02-22T05:05:47.747Z,99832.56
2023-02-22T05:08:16.070Z,99836.66
2023-02-22T05:10:46.552Z,99833.63
2023-02-22T05:13:16.100Z,99830.44
2023-02-22T05:15:44.128Z,99831.19
2023-02-22T05:18:12.270Z,99835.19
2023-02-22T05:20:40.674Z,99828.84
2023-02-22T05:23:09.452Z,99830.06
2023-02-22T05:25:38.807Z,99826.06
2023-02-22T05:28:12.687Z,99832.75
2023-02-22T05:30:41.415Z,99829.34
2023-02-22T05:33:09.976Z,99825.19
2023-02-22T05:35:38.778Z,99824.34
2023-02-22T05:38:07.488Z,99825.19
2023-02-22T05:40:35.813Z,99828.25
2023-02-22T05:43:08.851Z,99823.56
2023-02-22T05:45:37.219Z,99822.19
2023-02-22T05:48:06.071Z,99823.34
2023-02-22T05:50:34.793Z,99813.13
2023-02-22T05:53:03.197Z,99814.63
2023-02-22T05:55:31.737Z,99812.88
2023-02-22T05:57:59.710Z,99814.44
2023-02-22T06:00:29.955Z,99818.69
2023-02-22T06:02:58.138Z,99812.34
2023-02-22T06:05:27.406Z,99819.84
2023-02-22T06:07:55.628Z,99815.88
2023-02-22T06:10:24.356Z,99821.63
2023-02-22T06:12:52.902Z,99818.91
2023-02-22T06:15:21.532Z,99829.53
2023-02-22T06:17:50.814Z,99827.38
2023-02-22T06:20:20.519Z,99835.22
2023-02-22T06:22:48.877Z,99829.13
2023-02-22T06:25:17.495Z,99835.72
2023-02-22T06:27:47.943Z,99835.16
2023-02-22T06:30:18.278Z,99843.00
2023-02-22T06:32:46.405Z,99843.13
2023-02-22T06:35:16.773Z,99848.38
2023-02-22T06:37:45.143Z,99849.94
2023-02-22T06:40:13.455Z,99845.84
2023-02-22T06:42:41.884Z,99846.38
2023-02-22T06:45:10.726Z,99847.09
2023-02-22T06:47:42.821Z,99846.94
2023-02-22T06:50:19.691Z,99845.94
2023-02-22T06:52:49.339Z,99845.69
2023-02-22T06:55:20.835Z,99838.88
2023-02-22T06:57:49.031Z,99849.94
2023-02-22T07:00:18.843Z,99850.75
2023-02-22T07:02:48.520Z,99848.94
2023-02-22T07:05:17.682Z,99846.06
2023-02-22T07:07:45.771Z,99848.09
2023-02-22T07:10:19.797Z,99858.03
2023-02-22T07:12:48.880Z,99871.78
2023-02-22T07:15:18.053Z,99880.34
2023-02-22T07:17:46.021Z,99889.38
2023-02-22T07:20:14.178Z,99894.84
2023-02-22T07:22:42.452Z,99895.41
2023-02-22T07:25:11.336Z,99893.41
2023-02-22T07:27:41.598Z,99894.31
2023-02-22T07:30:16.902Z,99892.41
2023-02-22T07:32:45.105Z,99883.38
2023-02-22T07:35:15.753Z,99887.22
2023-02-22T07:37:44.187Z,99884.09
2023-02-22T07:40:12.728Z,99894.94
2023-02-22T07:42:55.940Z,99891.53
2023-02-22T07:45:24.584Z,99894.22
2023-02-22T07:47:52.914Z,99906.00
2023-02-22T07:50:21.983Z,99905.13
2023-02-22T07:52:50.759Z,99911.44
2023-02-22T07:55:19.976Z,99916.56
2023-02-22T07:57:48.558Z,99913.22
2023-02-22T08:00:23.591Z,99910.03
2023-02-22T08:02:52.473Z,99915.97
2023-02-22T08:05:21.311Z,99918.38
2023-02-22T08:07:49.357Z,99909.28
2023-02-22T08:10:18.184Z,99911.72
2023-02-22T08:12:46.514Z,99908.63
2023-02-22T08:15:17.541Z,99912.13
2023-02-22T08:17:46.915Z,99913.56
2023-02-22T08:20:15.066Z,99917.59
2023-02-22T08:22:44.566Z,99913.78
2023-02-22T08:25:12.868Z,99908.25
2023-02-22T08:27:40.775Z,99914.97
2023-02-22T08:30:09.181Z,99916.34
2023-02-22T08:32:37.295Z,99910.72
2023-02-22T08:35:07.700Z,99916.66
2023-02-22T08:37:35.890Z,99912.72
2023-02-22T08:40:04.073Z,99918.19
2023-02-22T08:42:31.866Z,99915.41
2023-02-22T08:44:59.648Z,99915.00
2023-02-22T08:47:27.737Z,99913.59
2023-02-22T08:49:55.706Z,99917.44
2023-02-22T08:52:24.967Z,99913.25
2023-02-22T08:54:52.926Z,99916.28
2023-02-22T08:57:21.744Z,99926.13
2023-02-22T08:59:49.944Z,99919.78
2023-02-22T09:02:19.242Z,99919.69
2023-02-22T09:04:47.913Z,99921.03
2023-02-22T09:07:16.101Z,99920.72
2023-02-22T09:09:45.911Z,99926.66
2023-02-22T09:12:13.748Z,99928.22
2023-02-22T09:14:43.227Z,99920.13
2023-02-22T09:17:11.106Z,99918.28
2023-02-22T09:19:38.953Z,99918.38
2023-02-22T09:22:06.843Z,99920.97
2023-02-22T09:24:34.882Z,99923.78
2023-02-22T09:27:07.544Z,99924.16
2023-02-22T09:29:35.496Z,99920.50
2023-02-22T09:32:04.480Z,99914.25
2023-02-22T09:34:35.343Z,99919.22
2023-02-22T09:37:05.076Z,99912.19
2023-02-22T09:39:37.495Z,99912.56
2023-02-22T09:42:10.749Z,99909.69
2023-02-22T09:44:44.031Z,99902.66
2023-02-22T09:47:15.406Z,99910.94
2023-02-22T09:49:47.458Z,99907.19
2023-02-22T09:52:19.756Z,99900.41
2023-02-22T09:54:51.936Z,99897.72
2023-02-22T09:57:26.132Z,99893.03
2023-02-22T09:59:58.625Z,99897.56
2023-02-22T10:02:29.912Z,99905.66
2023-02-22T10:05:01.424Z,99903.50
2023-02-22T10:07:32.659Z,99908.63
2023-02-22T10:10:06.744Z,99896.06
2023-02-22T10:12:41.504Z,99890.91
2023-02-22T10:15:30.557Z,99892.22
2023-02-22T10:18:05.187Z,99885.47
2023-02-22T10:20:42.940Z,99889.50
2023-02-22T10:23:14.753Z,99905.56
2023-02-22T10:25:45.329Z,99886.63
2023-02-22T10:28:17.387Z,99885.06
2023-02-22T10:30:49.366Z,99891.22
2023-02-22T10:33:20.828Z,99892.81
2023-02-22T10:35:49.043Z,99892.63
2023-02-22T10:38:20.214Z,99880.97
2023-02-22T10:40:50.662Z,99873.03
2023-02-22T10:43:20.073Z,99880.44
2023-02-22T10:45:48.113Z,99874.91
2023-02-22T10:48:18.615Z,99875.66
2023-02-22T10:50:47.245Z,99874.00
2023-02-22T10:53:19.310Z,99874.16
2023-02-22T10:56:06.109Z,99880.22
2023-02-22T10:58:42.455Z,99878.94
2023-02-22T11:01:19.945Z,99877.72
2023-02-22T11:03:57.153Z,99866.97
2023-02-22T11:06:25.379Z,99868.03
2023-02-22T11:09:04.844Z,99869.44
2023-02-22T11:11:34.149Z,99867.91
2023-02-22T11:14:06.652Z,99864.91
2023-02-22T11:16:36.725Z,99862.09
2023-02-22T11:19:10.012Z,99860.09
2023-02-22T11:21:38.436Z,99859.88
2023-02-22T11:24:09.206Z,99853.56
2023-02-22T11:26:39.535Z,99850.34
2023-02-22T11:29:22.432Z,99840.50
2023-02-22T11:31:50.715Z,99837.28
2023-02-22T11:34:30.393Z,99838.03
2023-02-22T11:36:58.604Z,99830.72
2023-02-22T11:39:30.247Z,99835.25
2023-02-22T11:41:58.321Z,99831.47
2023-02-22T11:44:28.795Z,99836.72
2023-02-22T11:46:57.929Z,99832.31
2023-02-22T11:49:34.340Z,99835.47
2023-02-22T11:52:10.279Z,99829.00
2023-02-22T11:54:48.723Z,99827.47
2023-02-22T11:57:26.287Z,99821.84
2023-02-22T12:00:16.162Z,99827.00
2023-02-22T12:02:57.305Z,99824.28
2023-02-22T12:05:37.280Z,99812.25
2023-02-22T12:08:19.855Z,99812.66
2023-02-22T12:10:55.223Z,99814.56
2023-02-22T12:13:31.781Z,99801.53
2023-02-22T12:16:07.684Z,99796.81
2023-02-22T12:18:39.409Z,99790.34
2023-02-22T12:21:10.510Z,99791.72
2023-02-22T12:23:44.854Z,99788.09
2023-02-22T12:26:16.704Z,99784.41
2023-02-22T12:28:48.691Z,99791.28
2023-02-22T12:31:23.127Z,99789.94
2023-02-22T12:33:56.415Z,99786.25
2023-02-22T12:36:28.057Z,99790.09
2023-02-22T12:38:58.423Z,99781.75
2023-02-22T12:41:28.848Z,99779.13
2023-02-22T12:44:01.335Z,99780.72
2023-02-22T12:46:32.662Z,99790.69
2023-02-22T12:49:05.497Z,99795.09
2023-02-22T12:51:35.989Z,99789.38
2023-02-22T12:54:08.774Z,99791.97
2023-02-22T12:56:38.495Z,99786.34
2023-02-22T12:59:10.164Z,99786.69
2023-02-22T13:01:41.599Z,99782.72
2023-02-22T13:04:20.587Z,99785.50
2023-02-22T13:06:56.742Z,99785.13
2023-02-22T13:09:34.814Z,99788.28
2023-02-22T13:12:05.683Z,99775.78
2023-02-22T13:14:39.421Z,99774.81
2023-02-22T13:17:13.406Z,99769.81
2023-02-22T13:19:48.567Z,99758.59
2023-02-22T13:22:20.347Z,99757.44
2023-02-22T13:24:56.775Z,99750.44
2023-02-22T13:27:30.041Z,99751.88
2023-02-22T13:29:59.120Z,99745.44
2023-02-22T13:32:38.191Z,99742.84
2023-02-22T13:35:17.496Z,99730.97
2023-02-22T13:38:03.363Z,99733.03
2023-02-22T13:40:57.584Z,99741.28
2023-02-22T13:43:43.593Z,99738.56
2023-02-22T13:46:26.422Z,99731.09
2023-02-22T13:49:40.027Z,99722.09
2023-02-22T13:52:10.228Z,99723.47
2023-02-22T13:54:41.135Z,99714.97
2023-02-22T13:57:19.655Z,99716.47
2023-02-22T13:59:50.251Z,99710.50
2023-02-22T14:02:39.088Z,99714.81
2023-02-22T14:05:22.063Z,99711.19
2023-02-22T14:07:51.152Z,99711.03
2023-02-22T14:10:46.065Z,99711.06
2023-02-22T14:13:14.419Z,99704.38
2023-02-22T14:16:00.895Z,99700.63
2023-02-22T14:18:30.006Z,99694.34
2023-02-22T14:21:06.241Z,99684.88
2023-02-22T14:23:40.301Z,99689.03
2023-02-22T14:26:12.597Z,99690.16
2023-02-22T14:28:42.659Z,99699.06
2023-02-22T14:31:17.422Z,99689.19
2023-02-22T14:34:05.123Z,99693.47
2023-02-22T14:36:35.779Z,99687.63
2023-02-22T14:39:08.052Z,99685.28
2023-02-22T14:41:38.681Z,99682.16
2023-02-22T14:44:06.683Z,99688.25
2023-02-22T14:46:40.845Z,99683.13
2023-02-22T14:49:10.993Z,99679.25
2023-02-22T14:51:43.019Z,99682.03
2023-02-22T14:54:16.256Z,99677.72
2023-02-22T14:56:49.293Z,99673.22
2023-02-22T14:59:18.598Z,99677.13
2023-02-22T15:02:01.523Z,99680.81
2023-02-22T15:04:33.701Z,99677.03
2023-02-22T15:07:02.371Z,99674.09
2023-02-22T15:09:37.495Z,99674.34
2023-02-22T15:12:12.995Z,99673.81
2023-02-22T15:14:44.854Z,99673.13
2023-02-22T15:17:15.294Z,99672.72
2023-02-22T15:19:43.705Z,99675.81
2023-02-22T15:22:21.033Z,99670.69
2023-02-22T15:24:58.714Z,99672.63
2023-02-22T15:27:27.206Z,99670.78
2023-02-22T15:29:59.057Z,99674.53
2023-02-22T15:32:31.096Z,99667.31
2023-02-22T15:35:10.163Z,99682.53
2023-02-22T15:37:38.140Z,99675.81
2023-02-22T15:40:14.699Z,99672.75
2023-02-22T15:42:46.716Z,99678.41
2023-02-22T15:45:19.919Z,99673.34
2023-02-22T15:47:47.738Z,99672.41
2023-02-22T15:50:17.127Z,99673.84
2023-02-22T15:52:48.992Z,99677.31
2023-02-22T15:55:18.626Z,99681.13
2023-02-22T15:57:46.952Z,99673.13
2023-02-22T16:00:21.103Z,99674.19
2023-02-22T16:02:51.143Z,99674.53
2023-02-22T16:05:19.980Z,99673.13
2023-02-22T16:07:49.979Z,99672.84
2023-02-22T16:10:23.843Z,99675.78
2023-02-22T16:12:52.644Z,99672.91
2023-02-22T16:15:20.656Z,99674.47
2023-02-22T16:18:01.440Z,99669.50
2023-02-22T16:20:34.203Z,99678.03
2023-02-22T16:23:02.021Z,99683.00
2023-02-22T16:25:35.642Z,99676.63
2023-02-22T16:28:06.218Z,99670.34
2023-02-22T16:30:35.658Z,99671.88
2023-02-22T16:33:05.894Z,99679.44
2023-02-22T16:35:35.750Z,99675.88
2023-02-22T16:38:04.932Z,99680.41
2023-02-22T16:40:35.338Z,99673.88
2023-02-22T16:43:03.626Z,99677.63
2023-02-22T16:45:31.165Z,99675.78
2023-02-22T16:47:59.911Z,99673.81
2023-02-22T16:50:27.789Z,99675.56
2023-02-22T16:52:58.634Z,99677.75
2023-02-22T16:55:27.154Z,99685.41
2023-02-22T16:58:01.246Z,99685.81
2023-02-22T17:00:32.146Z,99674.78
2023-02-22T17:02:59.795Z,99685.56
2023-02-22T17:05:27.604Z,99687.09
2023-02-22T17:07:55.486Z,99686.53
2023-02-22T17:10:23.241Z,99686.31
2023-02-22T17:12:53.544Z,99695.91
2023-02-22T17:15:27.176Z,99695.06
2023-02-22T17:17:55.757Z,99695.91
2023-02-22T17:20:29.982Z,99699.31
2023-02-22T17:22:59.114Z,99701.81
2023-02-22T17:25:28.420Z,99709.47
2023-02-22T17:27:56.394Z,99712.91
2023-02-22T17:30:25.783Z,99702.66
2023-02-22T17:32:56.327Z,99702.66
2023-02-22T17:35:27.047Z,99705.09
2023-02-22T17:37:56.170Z,99711.16
2023-02-22T17:40:25.970Z,99717.19
2023-02-22T17:42:55.380Z,99708.91
2023-02-22T17:45:24.192Z,99713.53
2023-02-22T17:47:53.932Z,99715.88
2023-02-22T17:50:22.569Z,99712.44
2023-02-22T17:52:51.637Z,99714.63
2023-02-22T17:55:19.781Z,99712.13
2023-02-22T17:57:48.995Z,99706.34
2023-02-22T18:00:23.332Z,99708.00
2023-02-22T18:02:52.072Z,99711.44
2023-02-22T18:05:21.337Z,99716.03
2023-02-22T18:07:49.910Z,99708.34
2023-02-22T18:10:22.058Z,99704.94
2023-02-22T18:12:50.345Z,99707.53
2023-02-22T18:15:21.504Z,99712.34
2023-02-22T18:17:57.549Z,99707.38
2023-02-22T18:20:31.132Z,99710.50
2023-02-22T18:23:02.384Z,99713.78
2023-02-22T18:25:30.683Z,99721.41
2023-02-22T18:27:58.480Z,99714.63
2023-02-22T18:30:29.208Z,99712.41
2023-02-22T18:33:06.876Z,99710.41
2023-02-22T18:35:43.677Z,99722.47
2023-02-22T18:38:14.654Z,99713.44
2023-02-22T18:40:46.942Z,99711.22
2023-02-22T18:43:15.098Z,99712.28
2023-02-22T18:45:48.800Z,99712.81
2023-02-22T18:48:22.909Z,99707.63
2023-02-22T18:50:53.349Z,99715.88
2023-02-22T18:53:22.089Z,99712.63
2023-02-22T18:55:49.886Z,99718.22
2023-02-22T18:58:17.860Z,99717.53
2023-02-22T19:00:45.923Z,99712.59
2023-02-22T19:03:13.995Z,99705.56
2023-02-22T19:05:42.075Z,99701.69
2023-02-22T19:08:11.600Z,99708.75
2023-02-22T19:10:39.760Z,99705.28
2023-02-22T19:13:10.900Z,99701.13
2023-02-22T19:15:39.461Z,99710.03
2023-02-22T19:18:07.365Z,99709.13
2023-02-22T19:20:35.225Z,99707.16
2023-02-22T19:23:03.237Z,99705.31
2023-02-22T19:25:34.769Z,99711.44
2023-02-22T19:28:03.184Z,99709.47
2023-02-22T19:30:36.971Z,99702.53
2023-02-22T19:33:05.140Z,99703.56
2023-02-22T19:35:33.141Z,99702.88
2023-02-22T19:38:03.284Z,99704.09
2023-02-22T19:40:33.706Z,99704.28
2023-02-22T19:43:01.873Z,99704.22
2023-02-22T19:45:30.705Z,99705.31
2023-02-22T19:47:58.609Z,99710.22
2023-02-22T19:50:28.351Z,99701.06
2023-02-22T19:52:58.464Z,99704.63
2023-02-22T19:55:32.658Z,99704.00
2023-02-22T19:58:01.798Z,99706.47
2023-02-22T20:00:35.733Z,99707.09
2023-02-22T20:03:09.325Z,99711.78
2023-02-22T20:05:40.805Z,99706.59
2023-02-22T20:08:10.668Z,99705.56
2023-02-22T20:10:40.115Z,99706.47
2023-02-22T20:13:11.803Z,99712.19
2023-02-22T20:15:40.037Z,99709.38
2023-02-22T20:18:10.305Z,99710.31
2023-02-22T20:20:40.857Z,99720.88
2023-02-22T20:23:10.797Z,99711.34
2023-02-22T20:25:38.791Z,99717.78
2023-02-22T20:28:08.504Z,99718.50
2023-02-22T20:30:39.497Z,99722.13
2023-02-22T20:33:10.458Z,99725.56
2023-02-22T20:35:38.735Z,99727.94
2023-02-22T20:38:06.949Z,99721.00
2023-02-22T20:40:35.584Z,99721.50
2023-02-22T20:43:04.839Z,99721.06
2023-02-22T20:45:33.206Z,99725.03
2023-02-22T20:48:02.630Z,99722.44
2023-02-22T20:50:33.055Z,99718.63
2023-02-22T20:53:03.189Z,99729.38
2023-02-22T20:55:31.349Z,99724.41
2023-02-22T20:57:59.171Z,99724.72
2023-02-22T21:00:26.951Z,99723.41
2023-02-22T21:02:56.248Z,99728.16
2023-02-22T21:05:25.662Z,99731.41
2023-02-22T21:07:56.803Z,99726.22
2023-02-22T21:10:24.477Z,99730.44
2023-02-22T21:12:52.407Z,99724.31
2023-02-22T21:15:26.389Z,99734.28
2023-02-22T21:17:54.304Z,99732.09
2023-02-22T21:20:21.986Z,99729.53
2023-02-22T21:22:55.739Z,99726.47
2023-02-22T21:25:31.459Z,99713.00
2023-02-22T21:28:05.528Z,99728.03
2023-02-22T21:30:40.183Z,99723.22
2023-02-22T21:33:08.448Z,99722.75
2023-02-22T21:35:40.731Z,99723.66
2023-02-22T21:38:14.822Z,99729.56
2023-02-22T21:40:42.706Z,99718.59
2023-02-22T21:43:10.965Z,99723.81
2023-02-22T21:45:39.106Z,99720.06
2023-02-22T21:48:10.592Z,99720.78
2023-02-22T21:50:38.576Z,99723.75
2023-02-22T21:53:07.362Z,99729.34
2023-02-22T21:55:38.165Z,99720.38
2023-02-22T21:58:06.346Z,99734.28
2023-02-22T22:00:38.337Z,99728.50
2023-02-22T22:03:08.985Z,99728.34
2023-02-22T22:05:39.494Z,99728.16
2023-02-22T22:08:19.666Z,99731.91
2023-02-22T22:10:55.285Z,99732.69
2023-02-22T22:13:24.301Z,99728.25
2023-02-22T22:15:53.101Z,99726.72
2023-02-22T22:18:21.276Z,99721.41
2023-02-22T22:20:51.694Z,99724.63
2023-02-22T22:23:19.468Z,99730.53
2023-02-22T22:25:51.110Z,99733.84
2023-02-22T22:28:21.994Z,99729.34
2023-02-22T22:30:49.733Z,99724.88
2023-02-22T22:33:17.686Z,99724.88
2023-02-22T22:35:45.785Z,99728.41
2023-02-22T22:38:14.653Z,99730.41
2023-02-22T22:40:42.532Z,99732.91
2023-02-22T22:43:10.156Z,99730.91
2023-02-22T22:45:40.907Z,99731.47
2023-02-22T22:48:15.152Z,99729.84
2023-02-22T22:50:50.281Z,99720.50
2023-02-22T22:53:18.891Z,99732.22
2023-02-22T22:55:46.784Z,99731.75
2023-02-22T22:58:15.170Z,99728.31
2023-02-22T23:00:46.233Z,99729.84
2023-02-22T23:03:17.934Z,99730.91
2023-02-22T23:05:46.251Z,99730.88
2023-02-22T23:08:13.888Z,99729.72
2023-02-22T23:10:42.295Z,99723.53
2023-02-22T23:13:10.949Z,99727.22
2023-02-22T23:15:45.053Z,99734.78
2023-02-22T23:18:14.789Z,99728.66
2023-02-22T23:20:45.820Z,99733.47
2023-02-22T23:23:14.849Z,99734.31
2023-02-22T23:25:43.159Z,99727.34
2023-02-22T23:28:14.830Z,99733.56
2023-02-22T23:30:44.595Z,99728.00
2023-02-22T23:33:14.898Z,99728.88
2023-02-22T23:35:49.898Z,99730.53
2023-02-22T23:38:17.918Z,99729.84
2023-02-22T23:40:47.354Z,99728.66
2023-02-22T23:43:16.932Z,99731.88
2023-02-22T23:45:49.560Z,99728.91
2023-02-22T23:48:21.161Z,99731.41
2023-02-22T23:50:51.304Z,99729.97
2023-02-22T23:53:19.690Z,99725.00
2023-02-22T23:55:47.591Z,99724.28
2023-02-22T23:58:15.568Z,99724.53
